sensor_id;sensor_type;location;lat;lon;timestamp;temperature;humidity
52867;DHT22;38739;53.324;6.862;2023-04-25T00:00:52;6.90;99.90
52867;DHT22;38739;53.324;6.862;2023-04-25T00:03:18;6.90;99.90
52867;DHT22;38739;53.324;6.862;2023-04-25T00:05:45;6.90;99.90
52867;DHT22;38739;53.324;6.862;2023-04-25T00:08:11;6.90;99.90
52867;DHT22;38739;53.324;6.862;2023-04-25T00:10:36;6.90;99.90
52867;DHT22;38739;53.324;6.862;2023-04-25T00:13:02;6.90;99.90
52867;DHT22;38739;53.324;6.862;2023-04-25T00:15:28;6.80;99.90
52867;DHT22;38739;53.324;6.862;2023-04-25T00:17:57;6.80;99.90
52867;DHT22;38739;53.324;6.862;2023-04-25T00:20:23;6.80;99.90
52867;DHT22;38739;53.324;6.862;2023-04-25T00:22:50;6.80;99.90
52867;DHT22;38739;53.324;6.862;2023-04-25T00:25:16;6.80;99.90
52867;DHT22;38739;53.324;6.862;2023-04-25T00:27:41;6.80;99.90
52867;DHT22;38739;53.324;6.862;2023-04-25T00:30:08;6.80;99.90
52867;DHT22;38739;53.324;6.862;2023-04-25T00:32:33;6.80;99.90
52867;DHT22;38739;53.324;6.862;2023-04-25T00:34:59;6.70;99.90
52867;DHT22;38739;53.324;6.862;2023-04-25T00:37:25;6.80;99.90
52867;DHT22;38739;53.324;6.862;2023-04-25T00:39:51;6.80;99.90
52867;DHT22;38739;53.324;6.862;2023-04-25T00:42:19;6.70;99.90
52867;DHT22;38739;53.324;6.862;2023-04-25T00:44:45;6.70;99.90
52867;DHT22;38739;53.324;6.862;2023-04-25T00:47:11;6.70;99.90
52867;DHT22;38739;53.324;6.862;2023-04-25T00:49:36;6.70;99.90
52867;DHT22;38739;53.324;6.862;2023-04-25T00:52:02;6.70;99.90
52867;DHT22;38739;53.324;6.862;2023-04-25T00:54:28;6.60;99.90
52867;DHT22;38739;53.324;6.862;2023-04-25T00:56:55;6.60;99.90
52867;DHT22;38739;53.324;6.862;2023-04-25T00:59:21;6.60;99.90
52867;DHT22;38739;53.324;6.862;2023-04-25T01:01:47;6.60;99.90
52867;DHT22;38739;53.324;6.862;2023-04-25T01:04:13;6.60;99.90
52867;DHT22;38739;53.324;6.862;2023-04-25T01:06:39;6.50;99.90
52867;DHT22;38739;53.324;6.862;2023-04-25T01:09:05;6.50;99.90
52867;DHT22;38739;53.324;6.862;2023-04-25T01:11:31;6.50;99.90
52867;DHT22;38739;53.324;6.862;2023-04-25T01:13:57;6.50;99.90
52867;DHT22;38739;53.324;6.862;2023-04-25T01:16:23;6.40;99.90
52867;DHT22;38739;53.324;6.862;2023-04-25T01:18:49;6.40;99.90
52867;DHT22;38739;53.324;6.862;2023-04-25T01:21:16;6.40;99.90
52867;DHT22;38739;53.324;6.862;2023-04-25T01:23:42;6.40;99.90
52867;DHT22;38739;53.324;6.862;2023-04-25T01:26:10;6.40;99.90
52867;DHT22;38739;53.324;6.862;2023-04-25T01:28:36;6.30;99.90
52867;DHT22;38739;53.324;6.862;2023-04-25T01:31:02;6.30;99.90
52867;DHT22;38739;53.324;6.862;2023-04-25T01:33:29;6.20;99.90
52867;DHT22;38739;53.324;6.862;2023-04-25T01:35:55;6.20;99.90
52867;DHT22;38739;53.324;6.862;2023-04-25T01:38:21;6.10;99.90
52867;DHT22;38739;53.324;6.862;2023-04-25T01:40:49;6.10;99.90
52867;DHT22;38739;53.324;6.862;2023-04-25T01:43:16;6.10;99.90
52867;DHT22;38739;53.324;6.862;2023-04-25T01:45:42;6.00;99.90
52867;DHT22;38739;53.324;6.862;2023-04-25T01:48:09;6.00;99.90
52867;DHT22;38739;53.324;6.862;2023-04-25T01:50:35;6.00;99.90
52867;DHT22;38739;53.324;6.862;2023-04-25T01:53:01;6.00;99.90
52867;DHT22;38739;53.324;6.862;2023-04-25T01:55:28;5.90;99.90
52867;DHT22;38739;53.324;6.862;2023-04-25T01:57:53;5.90;99.90
52867;DHT22;38739;53.324;6.862;2023-04-25T02:00:19;5.90;99.90
52867;DHT22;38739;53.324;6.862;2023-04-25T02:02:45;5.90;99.90
52867;DHT22;38739;53.324;6.862;2023-04-25T02:05:11;5.90;99.90
52867;DHT22;38739;53.324;6.862;2023-04-25T02:07:37;5.90;99.90
52867;DHT22;38739;53.324;6.862;2023-04-25T02:10:03;5.80;99.90
52867;DHT22;38739;53.324;6.862;2023-04-25T02:12:29;5.80;99.90
52867;DHT22;38739;53.324;6.862;2023-04-25T02:14:56;5.80;99.90
52867;DHT22;38739;53.324;6.862;2023-04-25T02:17:22;5.70;99.90
52867;DHT22;38739;53.324;6.862;2023-04-25T02:19:48;5.70;99.90
52867;DHT22;38739;53.324;6.862;2023-04-25T02:22:14;5.70;99.90
52867;DHT22;38739;53.324;6.862;2023-04-25T02:24:39;5.60;99.90
52867;DHT22;38739;53.324;6.862;2023-04-25T02:27:05;5.60;99.90
52867;DHT22;38739;53.324;6.862;2023-04-25T02:29:31;5.60;99.90
52867;DHT22;38739;53.324;6.862;2023-04-25T02:31:57;5.50;99.90
52867;DHT22;38739;53.324;6.862;2023-04-25T02:34:22;5.50;99.90
52867;DHT22;38739;53.324;6.862;2023-04-25T02:36:49;5.50;99.90
52867;DHT22;38739;53.324;6.862;2023-04-25T02:39:16;5.60;99.90
52867;DHT22;38739;53.324;6.862;2023-04-25T02:41:42;5.60;99.90
52867;DHT22;38739;53.324;6.862;2023-04-25T02:44:07;5.60;99.90
52867;DHT22;38739;53.324;6.862;2023-04-25T02:46:33;5.60;99.90
52867;DHT22;38739;53.324;6.862;2023-04-25T02:48:59;5.50;99.90
52867;DHT22;38739;53.324;6.862;2023-04-25T02:51:24;5.50;99.90
52867;DHT22;38739;53.324;6.862;2023-04-25T02:53:51;5.40;99.90
52867;DHT22;38739;53.324;6.862;2023-04-25T02:56:17;5.40;99.90
52867;DHT22;38739;53.324;6.862;2023-04-25T02:58:43;5.40;99.90
52867;DHT22;38739;53.324;6.862;2023-04-25T03:01:08;5.40;99.90
52867;DHT22;38739;53.324;6.862;2023-04-25T03:03:34;5.40;99.90
52867;DHT22;38739;53.324;6.862;2023-04-25T03:06:00;5.40;99.90
52867;DHT22;38739;53.324;6.862;2023-04-25T03:08:26;5.40;99.90
52867;DHT22;38739;53.324;6.862;2023-04-25T03:10:54;5.40;99.90
52867;DHT22;38739;53.324;6.862;2023-04-25T03:13:21;5.40;99.90
52867;DHT22;38739;53.324;6.862;2023-04-25T03:15:46;5.40;99.90
52867;DHT22;38739;53.324;6.862;2023-04-25T03:18:12;5.40;99.90
52867;DHT22;38739;53.324;6.862;2023-04-25T03:20:37;5.30;99.90
52867;DHT22;38739;53.324;6.862;2023-04-25T03:23:04;5.30;99.90
52867;DHT22;38739;53.324;6.862;2023-04-25T03:25:30;5.30;99.90
52867;DHT22;38739;53.324;6.862;2023-04-25T03:27:56;5.30;99.90
52867;DHT22;38739;53.324;6.862;2023-04-25T03:30:22;5.20;99.90
52867;DHT22;38739;53.324;6.862;2023-04-25T03:32:48;5.20;99.90
52867;DHT22;38739;53.324;6.862;2023-04-25T03:35:13;5.10;99.90
52867;DHT22;38739;53.324;6.862;2023-04-25T03:37:39;5.00;99.90
52867;DHT22;38739;53.324;6.862;2023-04-25T03:40:06;5.00;99.90
52867;DHT22;38739;53.324;6.862;2023-04-25T03:42:32;4.90;99.90
52867;DHT22;38739;53.324;6.862;2023-04-25T03:44:57;4.80;99.90
52867;DHT22;38739;53.324;6.862;2023-04-25T03:47:23;4.70;99.90
52867;DHT22;38739;53.324;6.862;2023-04-25T03:49:49;4.60;99.90
52867;DHT22;38739;53.324;6.862;2023-04-25T03:52:17;4.60;99.90
52867;DHT22;38739;53.324;6.862;2023-04-25T03:54:43;4.50;99.90
52867;DHT22;38739;53.324;6.862;2023-04-25T03:57:08;4.50;99.90
52867;DHT22;38739;53.324;6.862;2023-04-25T03:59:34;4.50;99.90
52867;DHT22;38739;53.324;6.862;2023-04-25T04:02:00;4.60;99.90
52867;DHT22;38739;53.324;6.862;2023-04-25T04:04:26;4.60;99.90
52867;DHT22;38739;53.324;6.862;2023-04-25T04:06:51;4.70;99.90
52867;DHT22;38739;53.324;6.862;2023-04-25T04:09:18;4.70;99.90
52867;DHT22;38739;53.324;6.862;2023-04-25T04:11:44;4.80;99.90
52867;DHT22;38739;53.324;6.862;2023-04-25T04:14:10;4.90;99.90
52867;DHT22;38739;53.324;6.862;2023-04-25T04:16:36;4.90;99.90
52867;DHT22;38739;53.324;6.862;2023-04-25T04:19:02;4.90;99.90
52867;DHT22;38739;53.324;6.862;2023-04-25T04:21:27;4.90;99.90
52867;DHT22;38739;53.324;6.862;2023-04-25T04:23:53;5.00;99.90
52867;DHT22;38739;53.324;6.862;2023-04-25T04:26:20;5.00;99.90
52867;DHT22;38739;53.324;6.862;2023-04-25T04:28:52;5.00;99.90
52867;DHT22;38739;53.324;6.862;2023-04-25T04:31:20;5.00;99.90
52867;DHT22;38739;53.324;6.862;2023-04-25T04:33:47;5.00;99.90
52867;DHT22;38739;53.324;6.862;2023-04-25T04:36:12;5.00;99.90
52867;DHT22;38739;53.324;6.862;2023-04-25T04:38:39;5.10;99.90
52867;DHT22;38739;53.324;6.862;2023-04-25T04:41:05;5.10;99.90
52867;DHT22;38739;53.324;6.862;2023-04-25T04:43:31;5.10;99.90
52867;DHT22;38739;53.324;6.862;2023-04-25T04:46:00;5.10;99.90
52867;DHT22;38739;53.324;6.862;2023-04-25T04:48:26;5.10;99.90
52867;DHT22;38739;53.324;6.862;2023-04-25T04:50:52;5.10;99.90
52867;DHT22;38739;53.324;6.862;2023-04-25T04:53:18;5.00;99.90
52867;DHT22;38739;53.324;6.862;2023-04-25T04:55:44;5.00;99.90
52867;DHT22;38739;53.324;6.862;2023-04-25T04:58:09;5.00;99.90
52867;DHT22;38739;53.324;6.862;2023-04-25T05:00:35;5.00;99.90
52867;DHT22;38739;53.324;6.862;2023-04-25T05:03:01;5.10;99.90
52867;DHT22;38739;53.324;6.862;2023-04-25T05:05:26;5.10;99.90
52867;DHT22;38739;53.324;6.862;2023-04-25T05:07:52;5.00;99.90
52867;DHT22;38739;53.324;6.862;2023-04-25T05:10:19;5.10;99.90
52867;DHT22;38739;53.324;6.862;2023-04-25T05:12:44;5.10;99.90
52867;DHT22;38739;53.324;6.862;2023-04-25T05:15:11;5.20;99.90
52867;DHT22;38739;53.324;6.862;2023-04-25T05:17:36;5.20;99.90
52867;DHT22;38739;53.324;6.862;2023-04-25T05:20:03;5.30;99.90
52867;DHT22;38739;53.324;6.862;2023-04-25T05:22:31;5.40;99.90
52867;DHT22;38739;53.324;6.862;2023-04-25T05:24:56;5.40;99.90
52867;DHT22;38739;53.324;6.862;2023-04-25T05:27:22;5.40;99.90
52867;DHT22;38739;53.324;6.862;2023-04-25T05:29:48;5.40;99.90
52867;DHT22;38739;53.324;6.862;2023-04-25T05:32:14;5.40;99.90
52867;DHT22;38739;53.324;6.862;2023-04-25T05:34:39;5.40;99.90
52867;DHT22;38739;53.324;6.862;2023-04-25T05:37:05;5.50;99.90
52867;DHT22;38739;53.324;6.862;2023-04-25T05:39:31;5.50;99.90
52867;DHT22;38739;53.324;6.862;2023-04-25T05:41:57;5.60;99.90
52867;DHT22;38739;53.324;6.862;2023-04-25T05:44:23;5.60;99.90
52867;DHT22;38739;53.324;6.862;2023-04-25T05:46:49;5.70;99.90
52867;DHT22;38739;53.324;6.862;2023-04-25T05:49:14;5.70;99.90
52867;DHT22;38739;53.324;6.862;2023-04-25T05:51:40;5.80;99.90
52867;DHT22;38739;53.324;6.862;2023-04-25T05:54:06;5.80;99.90
52867;DHT22;38739;53.324;6.862;2023-04-25T05:56:31;5.80;99.90
52867;DHT22;38739;53.324;6.862;2023-04-25T05:58:57;5.90;99.90
52867;DHT22;38739;53.324;6.862;2023-04-25T06:01:23;5.90;99.90
52867;DHT22;38739;53.324;6.862;2023-04-25T06:03:49;6.00;99.90
52867;DHT22;38739;53.324;6.862;2023-04-25T06:06:14;6.10;99.90
52867;DHT22;38739;53.324;6.862;2023-04-25T06:08:40;6.20;99.90
52867;DHT22;38739;53.324;6.862;2023-04-25T06:11:06;6.30;99.90
52867;DHT22;38739;53.324;6.862;2023-04-25T06:13:32;6.40;99.90
52867;DHT22;38739;53.324;6.862;2023-04-25T06:15:58;6.50;99.90
52867;DHT22;38739;53.324;6.862;2023-04-25T06:18:23;6.60;99.90
52867;DHT22;38739;53.324;6.862;2023-04-25T06:20:49;6.70;99.90
52867;DHT22;38739;53.324;6.862;2023-04-25T06:23:15;6.90;99.90
52867;DHT22;38739;53.324;6.862;2023-04-25T06:25:40;7.00;99.90
52867;DHT22;38739;53.324;6.862;2023-04-25T06:28:06;7.00;99.90
52867;DHT22;38739;53.324;6.862;2023-04-25T06:30:32;7.10;99.90
52867;DHT22;38739;53.324;6.862;2023-04-25T06:32:57;7.10;99.90
52867;DHT22;38739;53.324;6.862;2023-04-25T06:35:23;7.20;99.90
52867;DHT22;38739;53.324;6.862;2023-04-25T06:37:49;7.30;99.90
52867;DHT22;38739;53.324;6.862;2023-04-25T06:40:14;7.40;99.90
52867;DHT22;38739;53.324;6.862;2023-04-25T06:42:40;7.60;99.90
52867;DHT22;38739;53.324;6.862;2023-04-25T06:45:06;7.80;99.90
52867;DHT22;38739;53.324;6.862;2023-04-25T06:47:32;7.90;99.90
52867;DHT22;38739;53.324;6.862;2023-04-25T06:49:58;8.10;99.90
52867;DHT22;38739;53.324;6.862;2023-04-25T06:52:24;8.20;99.90
52867;DHT22;38739;53.324;6.862;2023-04-25T06:54:49;8.30;99.90
52867;DHT22;38739;53.324;6.862;2023-04-25T06:57:15;8.20;99.90
52867;DHT22;38739;53.324;6.862;2023-04-25T06:59:40;8.10;99.90
52867;DHT22;38739;53.324;6.862;2023-04-25T07:02:06;8.00;99.90
52867;DHT22;38739;53.324;6.862;2023-04-25T07:04:32;7.90;99.90
52867;DHT22;38739;53.324;6.862;2023-04-25T07:06:58;7.80;99.90
52867;DHT22;38739;53.324;6.862;2023-04-25T07:09:23;7.80;99.90
52867;DHT22;38739;53.324;6.862;2023-04-25T07:11:49;7.70;99.90
52867;DHT22;38739;53.324;6.862;2023-04-25T07:14:15;7.60;99.90
52867;DHT22;38739;53.324;6.862;2023-04-25T07:16:40;7.60;99.90
52867;DHT22;38739;53.324;6.862;2023-04-25T07:19:07;7.50;99.90
52867;DHT22;38739;53.324;6.862;2023-04-25T07:21:32;7.40;99.90
52867;DHT22;38739;53.324;6.862;2023-04-25T07:23:58;7.40;99.90
52867;DHT22;38739;53.324;6.862;2023-04-25T07:26:24;7.40;99.90
52867;DHT22;38739;53.324;6.862;2023-04-25T07:28:50;7.40;99.90
52867;DHT22;38739;53.324;6.862;2023-04-25T07:31:17;7.50;99.90
52867;DHT22;38739;53.324;6.862;2023-04-25T07:33:44;7.70;99.90
52867;DHT22;38739;53.324;6.862;2023-04-25T07:36:11;7.90;99.90
52867;DHT22;38739;53.324;6.862;2023-04-25T07:38:38;8.20;99.90
52867;DHT22;38739;53.324;6.862;2023-04-25T07:41:04;8.50;99.90
52867;DHT22;38739;53.324;6.862;2023-04-25T07:43:30;8.80;99.90
52867;DHT22;38739;53.324;6.862;2023-04-25T07:45:56;9.20;99.90
52867;DHT22;38739;53.324;6.862;2023-04-25T07:48:22;9.40;99.90
52867;DHT22;38739;53.324;6.862;2023-04-25T07:50:48;9.70;99.90
52867;DHT22;38739;53.324;6.862;2023-04-25T07:53:14;9.90;99.90
52867;DHT22;38739;53.324;6.862;2023-04-25T07:55:40;10.20;99.90
52867;DHT22;38739;53.324;6.862;2023-04-25T07:58:09;10.40;99.90
52867;DHT22;38739;53.324;6.862;2023-04-25T08:00:35;10.60;99.90
52867;DHT22;38739;53.324;6.862;2023-04-25T08:03:01;10.50;99.90
52867;DHT22;38739;53.324;6.862;2023-04-25T08:05:28;10.30;99.90
52867;DHT22;38739;53.324;6.862;2023-04-25T08:07:54;10.20;99.90
52867;DHT22;38739;53.324;6.862;2023-04-25T08:10:19;10.20;99.90
52867;DHT22;38739;53.324;6.862;2023-04-25T08:12:46;10.10;99.90
52867;DHT22;38739;53.324;6.862;2023-04-25T08:15:11;10.10;99.90
52867;DHT22;38739;53.324;6.862;2023-04-25T08:17:39;10.20;99.90
52867;DHT22;38739;53.324;6.862;2023-04-25T08:20:05;10.40;99.90
52867;DHT22;38739;53.324;6.862;2023-04-25T08:22:31;10.80;99.90
52867;DHT22;38739;53.324;6.862;2023-04-25T08:24:57;11.00;99.90
52867;DHT22;38739;53.324;6.862;2023-04-25T08:27:23;11.20;99.90
52867;DHT22;38739;53.324;6.862;2023-04-25T08:29:49;11.40;99.90
52867;DHT22;38739;53.324;6.862;2023-04-25T08:32:15;11.60;99.90
52867;DHT22;38739;53.324;6.862;2023-04-25T08:34:41;11.50;99.90
52867;DHT22;38739;53.324;6.862;2023-04-25T08:37:08;11.50;99.90
52867;DHT22;38739;53.324;6.862;2023-04-25T08:39:36;11.50;99.90
52867;DHT22;38739;53.324;6.862;2023-04-25T08:42:07;11.70;99.90
52867;DHT22;38739;53.324;6.862;2023-04-25T08:44:34;12.00;99.90
52867;DHT22;38739;53.324;6.862;2023-04-25T08:47:05;12.00;99.90
52867;DHT22;38739;53.324;6.862;2023-04-25T08:49:32;11.90;99.90
52867;DHT22;38739;53.324;6.862;2023-04-25T08:52:03;11.90;99.90
52867;DHT22;38739;53.324;6.862;2023-04-25T08:54:33;12.20;99.90
52867;DHT22;38739;53.324;6.862;2023-04-25T08:57:01;12.10;99.90
52867;DHT22;38739;53.324;6.862;2023-04-25T08:59:28;12.00;99.90
52867;DHT22;38739;53.324;6.862;2023-04-25T09:01:55;12.20;99.90
52867;DHT22;38739;53.324;6.862;2023-04-25T09:04:20;12.20;99.90
52867;DHT22;38739;53.324;6.862;2023-04-25T09:06:47;12.20;99.90
52867;DHT22;38739;53.324;6.862;2023-04-25T09:09:12;12.00;99.90
52867;DHT22;38739;53.324;6.862;2023-04-25T09:11:39;11.80;99.90
52867;DHT22;38739;53.324;6.862;2023-04-25T09:14:20;12.00;99.90
52867;DHT22;38739;53.324;6.862;2023-04-25T09:19:22;11.70;99.90
52867;DHT22;38739;53.324;6.862;2023-04-25T09:21:49;11.50;99.90
52867;DHT22;38739;53.324;6.862;2023-04-25T09:24:15;11.40;99.90
52867;DHT22;38739;53.324;6.862;2023-04-25T09:26:41;11.50;99.90
52867;DHT22;38739;53.324;6.862;2023-04-25T09:29:07;11.60;99.90
52867;DHT22;38739;53.324;6.862;2023-04-25T09:31:33;11.70;99.90
52867;DHT22;38739;53.324;6.862;2023-04-25T09:34:02;11.70;99.90
52867;DHT22;38739;53.324;6.862;2023-04-25T09:36:30;11.40;99.90
52867;DHT22;38739;53.324;6.862;2023-04-25T09:38:56;11.20;99.90
52867;DHT22;38739;53.324;6.862;2023-04-25T09:41:25;11.20;99.90
52867;DHT22;38739;53.324;6.862;2023-04-25T09:43:51;11.60;99.90
52867;DHT22;38739;53.324;6.862;2023-04-25T09:46:17;12.00;99.90
52867;DHT22;38739;53.324;6.862;2023-04-25T09:48:50;12.40;99.90
52867;DHT22;38739;53.324;6.862;2023-04-25T09:51:16;12.40;99.90
52867;DHT22;38739;53.324;6.862;2023-04-25T09:53:43;12.40;96.00
52867;DHT22;38739;53.324;6.862;2023-04-25T09:56:11;12.30;99.20
52867;DHT22;38739;53.324;6.862;2023-04-25T09:58:39;12.40;99.00
52867;DHT22;38739;53.324;6.862;2023-04-25T10:01:09;12.70;99.00
52867;DHT22;38739;53.324;6.862;2023-04-25T10:03:37;13.00;97.50
52867;DHT22;38739;53.324;6.862;2023-04-25T10:06:08;13.30;96.80
52867;DHT22;38739;53.324;6.862;2023-04-25T10:08:37;13.50;98.20
52867;DHT22;38739;53.324;6.862;2023-04-25T10:11:05;13.90;98.70
52867;DHT22;38739;53.324;6.862;2023-04-25T10:13:31;13.90;97.40
52867;DHT22;38739;53.324;6.862;2023-04-25T10:15:59;14.10;95.80
52867;DHT22;38739;53.324;6.862;2023-04-25T10:18:26;14.20;95.00
52867;DHT22;38739;53.324;6.862;2023-04-25T10:21:00;14.40;95.30
52867;DHT22;38739;53.324;6.862;2023-04-25T10:23:26;14.10;95.20
52867;DHT22;38739;53.324;6.862;2023-04-25T10:25:53;13.80;96.80
52867;DHT22;38739;53.324;6.862;2023-04-25T10:28:20;13.50;96.10
52867;DHT22;38739;53.324;6.862;2023-04-25T10:30:57;13.30;95.80
52867;DHT22;38739;53.324;6.862;2023-04-25T10:33:32;13.30;94.20
52867;DHT22;38739;53.324;6.862;2023-04-25T10:35:58;13.50;95.10
52867;DHT22;38739;53.324;6.862;2023-04-25T10:38:26;13.30;95.80
52867;DHT22;38739;53.324;6.862;2023-04-25T10:41:21;13.20;97.00
52867;DHT22;38739;53.324;6.862;2023-04-25T10:43:49;13.50;94.70
52867;DHT22;38739;53.324;6.862;2023-04-25T10:48:52;14.30;95.40
52867;DHT22;38739;53.324;6.862;2023-04-25T10:51:24;14.50;93.60
52867;DHT22;38739;53.324;6.862;2023-04-25T10:54:00;14.40;91.20
52867;DHT22;38739;53.324;6.862;2023-04-25T10:56:48;14.40;90.20
52867;DHT22;38739;53.324;6.862;2023-04-25T10:59:18;14.30;91.90
52867;DHT22;38739;53.324;6.862;2023-04-25T11:01:51;14.70;93.30
52867;DHT22;38739;53.324;6.862;2023-04-25T11:04:31;15.00;91.20
52867;DHT22;38739;53.324;6.862;2023-04-25T11:09:32;15.10;92.40
52867;DHT22;38739;53.324;6.862;2023-04-25T11:11:59;14.70;91.30
52867;DHT22;38739;53.324;6.862;2023-04-25T11:14:26;15.10;92.50
52867;DHT22;38739;53.324;6.862;2023-04-25T11:16:56;15.50;92.60
52867;DHT22;38739;53.324;6.862;2023-04-25T11:19:23;15.30;89.10
52867;DHT22;38739;53.324;6.862;2023-04-25T11:21:49;15.20;90.20
52867;DHT22;38739;53.324;6.862;2023-04-25T11:24:18;15.70;90.60
52867;DHT22;38739;53.324;6.862;2023-04-25T11:26:47;16.00;90.00
52867;DHT22;38739;53.324;6.862;2023-04-25T11:29:13;16.00;89.90
52867;DHT22;38739;53.324;6.862;2023-04-25T11:31:44;16.50;90.40
52867;DHT22;38739;53.324;6.862;2023-04-25T11:34:11;16.60;85.40
52867;DHT22;38739;53.324;6.862;2023-04-25T11:36:38;16.70;86.70
52867;DHT22;38739;53.324;6.862;2023-04-25T11:39:04;17.00;85.10
52867;DHT22;38739;53.324;6.862;2023-04-25T11:41:31;16.50;82.80
52867;DHT22;38739;53.324;6.862;2023-04-25T11:43:57;16.80;85.30
52867;DHT22;38739;53.324;6.862;2023-04-25T11:46:23;16.50;84.00
52867;DHT22;38739;53.324;6.862;2023-04-25T11:48:48;16.00;82.90
52867;DHT22;38739;53.324;6.862;2023-04-25T11:51:16;15.80;87.00
52867;DHT22;38739;53.324;6.862;2023-04-25T11:53:44;15.40;87.50
52867;DHT22;38739;53.324;6.862;2023-04-25T11:56:10;15.10;88.30
52867;DHT22;38739;53.324;6.862;2023-04-25T12:04:09;14.60;88.30
52867;DHT22;38739;53.324;6.862;2023-04-25T12:06:37;14.00;89.40
52867;DHT22;38739;53.324;6.862;2023-04-25T12:09:13;13.40;90.90
52867;DHT22;38739;53.324;6.862;2023-04-25T12:11:52;12.90;90.90
52867;DHT22;38739;53.324;6.862;2023-04-25T12:14:27;12.50;92.00
52867;DHT22;38739;53.324;6.862;2023-04-25T12:16:55;12.80;94.30
52867;DHT22;38739;53.324;6.862;2023-04-25T12:19:21;13.30;95.20
52867;DHT22;38739;53.324;6.862;2023-04-25T12:21:48;13.90;95.40
52867;DHT22;38739;53.324;6.862;2023-04-25T12:24:16;14.30;93.80
52867;DHT22;38739;53.324;6.862;2023-04-25T12:27:03;14.10;93.30
52867;DHT22;38739;53.324;6.862;2023-04-25T12:29:31;14.60;94.70
52867;DHT22;38739;53.324;6.862;2023-04-25T12:31:57;14.90;92.70
52867;DHT22;38739;53.324;6.862;2023-04-25T12:34:24;14.70;91.10
52867;DHT22;38739;53.324;6.862;2023-04-25T12:36:53;14.60;91.20
52867;DHT22;38739;53.324;6.862;2023-04-25T12:41:47;15.50;85.40
52867;DHT22;38739;53.324;6.862;2023-04-25T12:44:13;15.80;83.20
52867;DHT22;38739;53.324;6.862;2023-04-25T12:46:39;16.20;83.50
52867;DHT22;38739;53.324;6.862;2023-04-25T12:49:06;16.10;83.90
52867;DHT22;38739;53.324;6.862;2023-04-25T12:51:36;16.60;82.90
52867;DHT22;38739;53.324;6.862;2023-04-25T12:54:03;17.10;83.50
52867;DHT22;38739;53.324;6.862;2023-04-25T12:56:30;16.90;80.50
52867;DHT22;38739;53.324;6.862;2023-04-25T12:58:56;16.60;79.60
52867;DHT22;38739;53.324;6.862;2023-04-25T13:01:22;16.10;79.20
52867;DHT22;38739;53.324;6.862;2023-04-25T13:03:48;16.20;83.30
52867;DHT22;38739;53.324;6.862;2023-04-25T13:06:18;16.00;82.80
52867;DHT22;38739;53.324;6.862;2023-04-25T13:08:45;15.70;85.40
52867;DHT22;38739;53.324;6.862;2023-04-25T13:11:11;15.10;86.90
52867;DHT22;38739;53.324;6.862;2023-04-25T13:13:37;14.80;87.20
52867;DHT22;38739;53.324;6.862;2023-04-25T13:16:04;14.90;89.10
52867;DHT22;38739;53.324;6.862;2023-04-25T13:18:30;15.30;88.20
52867;DHT22;38739;53.324;6.862;2023-04-25T13:20:57;15.90;84.50
52867;DHT22;38739;53.324;6.862;2023-04-25T13:23:26;15.90;83.00
52867;DHT22;38739;53.324;6.862;2023-04-25T13:25:52;15.90;78.70
52867;DHT22;38739;53.324;6.862;2023-04-25T13:28:18;15.80;81.60
52867;DHT22;38739;53.324;6.862;2023-04-25T13:30:44;16.00;80.20
52867;DHT22;38739;53.324;6.862;2023-04-25T13:33:11;15.90;80.20
52867;DHT22;38739;53.324;6.862;2023-04-25T13:35:37;15.90;78.60
52867;DHT22;38739;53.324;6.862;2023-04-25T13:38:03;15.90;76.90
52867;DHT22;38739;53.324;6.862;2023-04-25T13:40:29;16.40;76.80
52867;DHT22;38739;53.324;6.862;2023-04-25T13:42:55;16.50;78.30
52867;DHT22;38739;53.324;6.862;2023-04-25T13:45:21;16.50;78.10
52867;DHT22;38739;53.324;6.862;2023-04-25T13:47:47;16.50;76.50
52867;DHT22;38739;53.324;6.862;2023-04-25T13:50:13;16.20;76.40
52867;DHT22;38739;53.324;6.862;2023-04-25T13:52:39;15.90;78.50
52867;DHT22;38739;53.324;6.862;2023-04-25T13:55:06;15.60;80.10
52867;DHT22;38739;53.324;6.862;2023-04-25T13:57:33;16.10;82.10
52867;DHT22;38739;53.324;6.862;2023-04-25T13:59:59;16.70;81.60
52867;DHT22;38739;53.324;6.862;2023-04-25T14:02:30;16.90;78.20
52867;DHT22;38739;53.324;6.862;2023-04-25T14:04:56;16.90;77.00
52867;DHT22;38739;53.324;6.862;2023-04-25T14:07:21;16.50;75.20
52867;DHT22;38739;53.324;6.862;2023-04-25T14:09:47;16.20;74.90
52867;DHT22;38739;53.324;6.862;2023-04-25T14:12:13;16.20;74.20
52867;DHT22;38739;53.324;6.862;2023-04-25T14:14:38;15.80;74.70
52867;DHT22;38739;53.324;6.862;2023-04-25T14:17:04;16.00;76.20
52867;DHT22;38739;53.324;6.862;2023-04-25T14:19:30;15.60;75.30
52867;DHT22;38739;53.324;6.862;2023-04-25T14:21:56;15.40;76.70
52867;DHT22;38739;53.324;6.862;2023-04-25T14:24:21;15.10;77.40
52867;DHT22;38739;53.324;6.862;2023-04-25T14:26:47;15.30;78.30
52867;DHT22;38739;53.324;6.862;2023-04-25T14:29:13;15.50;77.60
52867;DHT22;38739;53.324;6.862;2023-04-25T14:31:39;15.20;76.90
52867;DHT22;38739;53.324;6.862;2023-04-25T14:34:05;15.00;76.70
52867;DHT22;38739;53.324;6.862;2023-04-25T14:36:32;15.10;79.00
52867;DHT22;38739;53.324;6.862;2023-04-25T14:38:59;15.40;77.30
52867;DHT22;38739;53.324;6.862;2023-04-25T14:41:25;15.40;73.80
52867;DHT22;38739;53.324;6.862;2023-04-25T14:43:52;15.60;74.40
52867;DHT22;38739;53.324;6.862;2023-04-25T14:46:19;15.90;75.80
52867;DHT22;38739;53.324;6.862;2023-04-25T14:48:45;16.20;76.30
52867;DHT22;38739;53.324;6.862;2023-04-25T14:51:11;16.60;76.10
52867;DHT22;38739;53.324;6.862;2023-04-25T14:53:37;16.80;74.80
52867;DHT22;38739;53.324;6.862;2023-04-25T14:56:03;16.40;75.00
52867;DHT22;38739;53.324;6.862;2023-04-25T14:58:28;15.90;76.30
52867;DHT22;38739;53.324;6.862;2023-04-25T15:00:54;15.50;78.20
52867;DHT22;38739;53.324;6.862;2023-04-25T15:03:20;15.00;79.00
52867;DHT22;38739;53.324;6.862;2023-04-25T15:05:46;15.10;79.40
52867;DHT22;38739;53.324;6.862;2023-04-25T15:08:12;15.30;78.40
52867;DHT22;38739;53.324;6.862;2023-04-25T15:10:37;15.00;76.00
52867;DHT22;38739;53.324;6.862;2023-04-25T15:13:03;14.50;76.40
52867;DHT22;38739;53.324;6.862;2023-04-25T15:15:29;14.50;79.00
52867;DHT22;38739;53.324;6.862;2023-04-25T15:17:55;14.40;77.60
52867;DHT22;38739;53.324;6.862;2023-04-25T15:20:22;14.10;77.80
52867;DHT22;38739;53.324;6.862;2023-04-25T15:22:47;14.00;79.30
52867;DHT22;38739;53.324;6.862;2023-04-25T15:25:15;13.80;80.40
52867;DHT22;38739;53.324;6.862;2023-04-25T15:27:44;13.70;80.90
52867;DHT22;38739;53.324;6.862;2023-04-25T15:30:13;13.80;81.20
52867;DHT22;38739;53.324;6.862;2023-04-25T15:32:41;14.00;80.60
52867;DHT22;38739;53.324;6.862;2023-04-25T15:35:07;14.00;80.00
52867;DHT22;38739;53.324;6.862;2023-04-25T15:37:34;14.20;80.70
52867;DHT22;38739;53.324;6.862;2023-04-25T15:40:08;14.40;79.30
52867;DHT22;38739;53.324;6.862;2023-04-25T15:42:35;14.40;79.40
52867;DHT22;38739;53.324;6.862;2023-04-25T15:45:04;14.40;79.20
52867;DHT22;38739;53.324;6.862;2023-04-25T15:47:30;14.10;78.30
52867;DHT22;38739;53.324;6.862;2023-04-25T15:49:55;13.80;78.80